sensor_id;sensor_type;location;lat;lon;timestamp;P1;durP1;ratioP1;P2;durP2;ratioP2
15474;SDS011;7839;50.462;9.678;2023-04-03T00:00:22;5.93;;;2.60;;
15474;SDS011;7839;50.462;9.678;2023-04-03T00:07:02;2.77;;;1.40;;
15474;SDS011;7839;50.462;9.678;2023-04-03T00:13:42;5.80;;;1.67;;
15474;SDS011;7839;50.462;9.678;2023-04-03T00:20:23;2.10;;;1.30;;
15474;SDS011;7839;50.462;9.678;2023-04-03T00:27:03;2.90;;;1.50;;
15474;SDS011;7839;50.462;9.678;2023-04-03T00:33:43;2.50;;;1.50;;
15474;SDS011;7839;50.462;9.678;2023-04-03T00:40:24;2.80;;;1.33;;
15474;SDS011;7839;50.462;9.678;2023-04-03T00:47:05;2.63;;;1.30;;
15474;SDS011;7839;50.462;9.678;2023-04-03T00:54:00;4.30;;;1.33;;
15474;SDS011;7839;50.462;9.678;2023-04-03T01:00:41;2.53;;;0.90;;
15474;SDS011;7839;50.462;9.678;2023-04-03T01:07:23;4.53;;;1.47;;
15474;SDS011;7839;50.462;9.678;2023-04-03T01:14:07;4.50;;;1.90;;
15474;SDS011;7839;50.462;9.678;2023-04-03T01:27:32;2.20;;;1.13;;
15474;SDS011;7839;50.462;9.678;2023-04-03T01:34:13;1.50;;;1.40;;
15474;SDS011;7839;50.462;9.678;2023-04-03T01:40:54;2.70;;;1.30;;
15474;SDS011;7839;50.462;9.678;2023-04-03T01:47:35;3.80;;;1.63;;
15474;SDS011;7839;50.462;9.678;2023-04-03T01:54:15;3.97;;;1.40;;
15474;SDS011;7839;50.462;9.678;2023-04-03T02:00:55;2.40;;;1.20;;
15474;SDS011;7839;50.462;9.678;2023-04-03T02:07:35;2.93;;;1.53;;
15474;SDS011;7839;50.462;9.678;2023-04-03T02:14:16;2.38;;;1.27;;
15474;SDS011;7839;50.462;9.678;2023-04-03T02:20:56;3.17;;;1.20;;
15474;SDS011;7839;50.462;9.678;2023-04-03T02:27:36;2.03;;;1.40;;
15474;SDS011;7839;50.462;9.678;2023-04-03T02:34:16;5.20;;;1.53;;
15474;SDS011;7839;50.462;9.678;2023-04-03T02:41:02;5.85;;;1.60;;
15474;SDS011;7839;50.462;9.678;2023-04-03T02:47:43;2.70;;;1.37;;
15474;SDS011;7839;50.462;9.678;2023-04-03T02:54:24;1.97;;;1.00;;
15474;SDS011;7839;50.462;9.678;2023-04-03T03:01:08;0.97;;;0.83;;
15474;SDS011;7839;50.462;9.678;2023-04-03T03:07:49;1.07;;;0.93;;
15474;SDS011;7839;50.462;9.678;2023-04-03T03:14:29;0.83;;;0.70;;
15474;SDS011;7839;50.462;9.678;2023-04-03T03:21:10;1.27;;;1.10;;
15474;SDS011;7839;50.462;9.678;2023-04-03T03:27:50;1.03;;;0.67;;
15474;SDS011;7839;50.462;9.678;2023-04-03T03:34:30;0.50;;;0.50;;
15474;SDS011;7839;50.462;9.678;2023-04-03T03:41:11;0.40;;;0.40;;
15474;SDS011;7839;50.462;9.678;2023-04-03T03:47:51;0.60;;;0.60;;
15474;SDS011;7839;50.462;9.678;2023-04-03T03:54:31;1.02;;;0.73;;
15474;SDS011;7839;50.462;9.678;2023-04-03T04:01:12;4.30;;;1.73;;
15474;SDS011;7839;50.462;9.678;2023-04-03T04:07:53;4.87;;;1.43;;
15474;SDS011;7839;50.462;9.678;2023-04-03T04:14:33;3.87;;;1.70;;
15474;SDS011;7839;50.462;9.678;2023-04-03T04:21:13;4.63;;;2.53;;
15474;SDS011;7839;50.462;9.678;2023-04-03T04:27:54;1.65;;;0.95;;
15474;SDS011;7839;50.462;9.678;2023-04-03T04:34:34;1.40;;;0.87;;
15474;SDS011;7839;50.462;9.678;2023-04-03T04:41:14;0.73;;;0.70;;
15474;SDS011;7839;50.462;9.678;2023-04-03T04:47:56;0.60;;;0.53;;
15474;SDS011;7839;50.462;9.678;2023-04-03T04:54:36;1.03;;;0.50;;
15474;SDS011;7839;50.462;9.678;2023-04-03T05:01:16;3.30;;;1.60;;
15474;SDS011;7839;50.462;9.678;2023-04-03T05:07:56;5.43;;;1.80;;
15474;SDS011;7839;50.462;9.678;2023-04-03T05:14:37;2.93;;;1.40;;
15474;SDS011;7839;50.462;9.678;2023-04-03T05:21:17;1.23;;;0.50;;
15474;SDS011;7839;50.462;9.678;2023-04-03T05:27:58;0.90;;;0.60;;
15474;SDS011;7839;50.462;9.678;2023-04-03T05:34:38;0.40;;;0.40;;
15474;SDS011;7839;50.462;9.678;2023-04-03T05:41:20;0.50;;;0.40;;
15474;SDS011;7839;50.462;9.678;2023-04-03T05:48:03;2.03;;;1.67;;
15474;SDS011;7839;50.462;9.678;2023-04-03T05:54:43;5.07;;;1.83;;
15474;SDS011;7839;50.462;9.678;2023-04-03T06:01:24;3.67;;;2.00;;
15474;SDS011;7839;50.462;9.678;2023-04-03T06:08:04;5.73;;;2.23;;
15474;SDS011;7839;50.462;9.678;2023-04-03T06:14:45;4.10;;;1.87;;
15474;SDS011;7839;50.462;9.678;2023-04-03T06:21:26;3.50;;;2.17;;
15474;SDS011;7839;50.462;9.678;2023-04-03T06:28:07;2.93;;;1.83;;
15474;SDS011;7839;50.462;9.678;2023-04-03T06:34:49;3.83;;;1.80;;
15474;SDS011;7839;50.462;9.678;2023-04-03T06:41:29;5.90;;;1.83;;
15474;SDS011;7839;50.462;9.678;2023-04-03T06:48:11;3.27;;;2.17;;
15474;SDS011;7839;50.462;9.678;2023-04-03T06:54:51;5.00;;;2.40;;
15474;SDS011;7839;50.462;9.678;2023-04-03T07:01:37;6.40;;;2.33;;
15474;SDS011;7839;50.462;9.678;2023-04-03T07:08:18;2.67;;;1.90;;
15474;SDS011;7839;50.462;9.678;2023-04-03T07:14:58;4.17;;;2.20;;
15474;SDS011;7839;50.462;9.678;2023-04-03T07:21:41;4.27;;;2.50;;
15474;SDS011;7839;50.462;9.678;2023-04-03T07:28:22;3.43;;;2.03;;
15474;SDS011;7839;50.462;9.678;2023-04-03T07:35:02;2.57;;;2.27;;
15474;SDS011;7839;50.462;9.678;2023-04-03T07:41:43;3.60;;;2.50;;
15474;SDS011;7839;50.462;9.678;2023-04-03T07:48:25;6.33;;;3.40;;
15474;SDS011;7839;50.462;9.678;2023-04-03T07:55:06;5.37;;;3.03;;
15474;SDS011;7839;50.462;9.678;2023-04-03T08:01:46;6.80;;;2.47;;
15474;SDS011;7839;50.462;9.678;2023-04-03T08:08:27;5.17;;;3.00;;
15474;SDS011;7839;50.462;9.678;2023-04-03T08:15:09;3.53;;;2.60;;
15474;SDS011;7839;50.462;9.678;2023-04-03T08:21:50;6.63;;;3.30;;
15474;SDS011;7839;50.462;9.678;2023-04-03T08:28:30;6.43;;;2.53;;
15474;SDS011;7839;50.462;9.678;2023-04-03T08:35:10;5.53;;;2.83;;
15474;SDS011;7839;50.462;9.678;2023-04-03T08:41:51;3.53;;;2.30;;
15474;SDS011;7839;50.462;9.678;2023-04-03T08:48:39;3.83;;;2.30;;
15474;SDS011;7839;50.462;9.678;2023-04-03T09:02:21;4.13;;;2.27;;
15474;SDS011;7839;50.462;9.678;2023-04-03T09:09:20;2.40;;;2.20;;
15474;SDS011;7839;50.462;9.678;2023-04-03T09:16:14;3.47;;;1.80;;
15474;SDS011;7839;50.462;9.678;2023-04-03T09:22:56;2.43;;;2.00;;
15474;SDS011;7839;50.462;9.678;2023-04-03T09:29:40;3.77;;;1.90;;
15474;SDS011;7839;50.462;9.678;2023-04-03T09:36:42;4.20;;;1.90;;
15474;SDS011;7839;50.462;9.678;2023-04-03T09:43:24;3.83;;;2.13;;
15474;SDS011;7839;50.462;9.678;2023-04-03T09:50:15;1.63;;;1.20;;
15474;SDS011;7839;50.462;9.678;2023-04-03T09:57:01;1.67;;;1.30;;
15474;SDS011;7839;50.462;9.678;2023-04-03T10:03:43;2.70;;;1.10;;
15474;SDS011;7839;50.462;9.678;2023-04-03T10:10:27;2.30;;;1.50;;
15474;SDS011;7839;50.462;9.678;2023-04-03T10:23:54;1.43;;;1.27;;
15474;SDS011;7839;50.462;9.678;2023-04-03T10:30:42;1.40;;;1.30;;
15474;SDS011;7839;50.462;9.678;2023-04-03T10:37:29;2.20;;;1.70;;
15474;SDS011;7839;50.462;9.678;2023-04-03T10:44:20;3.10;;;1.83;;
15474;SDS011;7839;50.462;9.678;2023-04-03T10:51:11;4.37;;;2.43;;
15474;SDS011;7839;50.462;9.678;2023-04-03T10:57:55;2.00;;;1.90;;
15474;SDS011;7839;50.462;9.678;2023-04-03T11:04:37;4.67;;;2.33;;
15474;SDS011;7839;50.462;9.678;2023-04-03T11:11:20;5.27;;;2.50;;
15474;SDS011;7839;50.462;9.678;2023-04-03T11:18:02;4.60;;;3.43;;
15474;SDS011;7839;50.462;9.678;2023-04-03T11:24:46;3.37;;;2.43;;
15474;SDS011;7839;50.462;9.678;2023-04-03T11:38:17;3.67;;;1.47;;
15474;SDS011;7839;50.462;9.678;2023-04-03T11:51:58;0.87;;;0.77;;
15474;SDS011;7839;50.462;9.678;2023-04-03T11:58:40;2.33;;;1.17;;
15474;SDS011;7839;50.462;9.678;2023-04-03T12:05:27;2.23;;;1.10;;
15474;SDS011;7839;50.462;9.678;2023-04-03T12:26:02;2.03;;;1.03;;
15474;SDS011;7839;50.462;9.678;2023-04-03T12:39:45;2.13;;;0.90;;
15474;SDS011;7839;50.462;9.678;2023-04-03T12:46:33;1.37;;;1.20;;
15474;SDS011;7839;50.462;9.678;2023-04-03T12:53:23;1.10;;;1.00;;
15474;SDS011;7839;50.462;9.678;2023-04-03T13:07:01;1.07;;;0.97;;
15474;SDS011;7839;50.462;9.678;2023-04-03T13:14:04;1.70;;;1.20;;
15474;SDS011;7839;50.462;9.678;2023-04-03T13:20:45;2.67;;;0.90;;
15474;SDS011;7839;50.462;9.678;2023-04-03T13:27:29;1.27;;;0.80;;
15474;SDS011;7839;50.462;9.678;2023-04-03T13:34:13;1.90;;;1.10;;
15474;SDS011;7839;50.462;9.678;2023-04-03T13:40:58;1.43;;;1.00;;
15474;SDS011;7839;50.462;9.678;2023-04-03T13:47:41;1.30;;;0.70;;
15474;SDS011;7839;50.462;9.678;2023-04-03T13:54:22;2.23;;;0.90;;
15474;SDS011;7839;50.462;9.678;2023-04-03T14:01:11;1.60;;;1.00;;
15474;SDS011;7839;50.462;9.678;2023-04-03T14:07:56;1.83;;;1.07;;
15474;SDS011;7839;50.462;9.678;2023-04-03T14:14:37;1.03;;;0.80;;
15474;SDS011;7839;50.462;9.678;2023-04-03T14:21:19;1.57;;;1.00;;
15474;SDS011;7839;50.462;9.678;2023-04-03T14:28:06;1.73;;;1.23;;
15474;SDS011;7839;50.462;9.678;2023-04-03T14:34:52;1.47;;;0.97;;
15474;SDS011;7839;50.462;9.678;2023-04-03T14:41:32;2.10;;;0.93;;
15474;SDS011;7839;50.462;9.678;2023-04-03T14:48:15;3.07;;;1.07;;
15474;SDS011;7839;50.462;9.678;2023-04-03T14:54:56;3.03;;;1.00;;
15474;SDS011;7839;50.462;9.678;2023-04-03T15:01:38;1.23;;;0.90;;
15474;SDS011;7839;50.462;9.678;2023-04-03T15:08:19;2.00;;;1.00;;
15474;SDS011;7839;50.462;9.678;2023-04-03T15:15:00;3.30;;;1.50;;
15474;SDS011;7839;50.462;9.678;2023-04-03T15:21:41;1.53;;;1.00;;
15474;SDS011;7839;50.462;9.678;2023-04-03T15:28:31;5.00;;;1.33;;
15474;SDS011;7839;50.462;9.678;2023-04-03T15:35:12;1.50;;;0.80;;
15474;SDS011;7839;50.462;9.678;2023-04-03T15:41:53;2.03;;;1.13;;
15474;SDS011;7839;50.462;9.678;2023-04-03T15:48:34;2.17;;;1.27;;
15474;SDS011;7839;50.462;9.678;2023-04-03T15:55:15;1.87;;;1.17;;
15474;SDS011;7839;50.462;9.678;2023-04-03T16:01:55;2.77;;;1.23;;
15474;SDS011;7839;50.462;9.678;2023-04-03T16:08:36;3.77;;;1.27;;
15474;SDS011;7839;50.462;9.678;2023-04-03T16:15:16;3.33;;;1.40;;
15474;SDS011;7839;50.462;9.678;2023-04-03T16:21:58;1.20;;;1.10;;
15474;SDS011;7839;50.462;9.678;2023-04-03T16:28:38;2.53;;;1.33;;
15474;SDS011;7839;50.462;9.678;2023-04-03T16:35:18;0.93;;;0.90;;
15474;SDS011;7839;50.462;9.678;2023-04-03T16:41:58;3.17;;;1.35;;
15474;SDS011;7839;50.462;9.678;2023-04-03T16:48:39;2.47;;;1.07;;
15474;SDS011;7839;50.462;9.678;2023-04-03T16:55:21;3.07;;;1.70;;
15474;SDS011;7839;50.462;9.678;2023-04-03T17:02:01;4.33;;;1.43;;
15474;SDS011;7839;50.462;9.678;2023-04-03T17:08:43;2.67;;;1.33;;
15474;SDS011;7839;50.462;9.678;2023-04-03T17:15:24;1.37;;;0.90;;
15474;SDS011;7839;50.462;9.678;2023-04-03T17:22:04;2.20;;;1.03;;
15474;SDS011;7839;50.462;9.678;2023-04-03T17:28:45;2.33;;;0.97;;
15474;SDS011;7839;50.462;9.678;2023-04-03T17:35:25;2.07;;;0.90;;
15474;SDS011;7839;50.462;9.678;2023-04-03T17:42:05;0.83;;;0.77;;
15474;SDS011;7839;50.462;9.678;2023-04-03T17:48:46;1.30;;;0.80;;
15474;SDS011;7839;50.462;9.678;2023-04-03T17:55:26;1.27;;;0.90;;
15474;SDS011;7839;50.462;9.678;2023-04-03T18:02:06;0.93;;;0.90;;
15474;SDS011;7839;50.462;9.678;2023-04-03T18:08:50;1.90;;;1.20;;
15474;SDS011;7839;50.462;9.678;2023-04-03T18:15:31;1.90;;;1.43;;
15474;SDS011;7839;50.462;9.678;2023-04-03T18:22:12;1.27;;;0.83;;
15474;SDS011;7839;50.462;9.678;2023-04-03T18:28:59;1.40;;;1.30;;
15474;SDS011;7839;50.462;9.678;2023-04-03T18:35:41;2.73;;;1.20;;
15474;SDS011;7839;50.462;9.678;2023-04-03T18:42:22;1.07;;;0.90;;
15474;SDS011;7839;50.462;9.678;2023-04-03T18:49:03;2.77;;;1.67;;
15474;SDS011;7839;50.462;9.678;2023-04-03T18:55:43;1.67;;;0.70;;
15474;SDS011;7839;50.462;9.678;2023-04-03T19:02:25;1.10;;;0.90;;
15474;SDS011;7839;50.462;9.678;2023-04-03T19:09:06;1.30;;;0.80;;
15474;SDS011;7839;50.462;9.678;2023-04-03T19:15:49;2.73;;;1.23;;
15474;SDS011;7839;50.462;9.678;2023-04-03T19:22:31;1.90;;;1.33;;
15474;SDS011;7839;50.462;9.678;2023-04-03T19:29:11;2.23;;;1.00;;
15474;SDS011;7839;50.462;9.678;2023-04-03T19:35:51;0.57;;;0.57;;
15474;SDS011;7839;50.462;9.678;2023-04-03T19:42:32;0.70;;;0.60;;
15474;SDS011;7839;50.462;9.678;2023-04-03T19:49:17;1.87;;;1.37;;
15474;SDS011;7839;50.462;9.678;2023-04-03T19:55:57;1.93;;;1.07;;
15474;SDS011;7839;50.462;9.678;2023-04-03T20:02:37;2.83;;;1.60;;
15474;SDS011;7839;50.462;9.678;2023-04-03T20:09:18;1.90;;;1.57;;
15474;SDS011;7839;50.462;9.678;2023-04-03T20:16:01;5.17;;;1.70;;
15474;SDS011;7839;50.462;9.678;2023-04-03T20:22:41;2.37;;;1.40;;
15474;SDS011;7839;50.462;9.678;2023-04-03T20:29:23;1.50;;;1.00;;
15474;SDS011;7839;50.462;9.678;2023-04-03T20:36:04;2.40;;;1.47;;
15474;SDS011;7839;50.462;9.678;2023-04-03T20:42:44;1.83;;;1.30;;
15474;SDS011;7839;50.462;9.678;2023-04-03T20:49:25;2.13;;;0.80;;
15474;SDS011;7839;50.462;9.678;2023-04-03T20:56:06;1.60;;;1.23;;
15474;SDS011;7839;50.462;9.678;2023-04-03T21:02:48;0.67;;;0.67;;
15474;SDS011;7839;50.462;9.678;2023-04-03T21:23:10;1.00;;;0.67;;
15474;SDS011;7839;50.462;9.678;2023-04-03T21:29:50;1.38;;;0.68;;
15474;SDS011;7839;50.462;9.678;2023-04-03T21:36:38;1.07;;;0.70;;
15474;SDS011;7839;50.462;9.678;2023-04-03T21:43:19;1.50;;;1.13;;
15474;SDS011;7839;50.462;9.678;2023-04-03T21:50:00;1.17;;;1.00;;
15474;SDS011;7839;50.462;9.678;2023-04-03T21:56:41;1.50;;;0.80;;
15474;SDS011;7839;50.462;9.678;2023-04-03T22:03:21;0.97;;;0.60;;
15474;SDS011;7839;50.462;9.678;2023-04-03T22:10:03;1.37;;;0.80;;
15474;SDS011;7839;50.462;9.678;2023-04-03T22:16:44;0.50;;;0.50;;
15474;SDS011;7839;50.462;9.678;2023-04-03T22:23:25;0.50;;;0.50;;
15474;SDS011;7839;50.462;9.678;2023-04-03T22:30:06;0.97;;;0.53;;
15474;SDS011;7839;50.462;9.678;2023-04-03T22:36:46;1.00;;;0.60;;
15474;SDS011;7839;50.462;9.678;2023-04-03T22:43:27;0.70;;;0.70;;
15474;SDS011;7839;50.462;9.678;2023-04-03T22:50:08;1.13;;;0.70;;
15474;SDS011;7839;50.462;9.678;2023-04-03T22:56:48;0.83;;;0.83;;
15474;SDS011;7839;50.462;9.678;2023-04-03T23:03:28;0.87;;;0.60;;
15474;SDS011;7839;50.462;9.678;2023-04-03T23:10:09;0.50;;;0.50;;
15474;SDS011;7839;50.462;9.678;2023-04-03T23:16:50;0.60;;;0.60;;
15474;SDS011;7839;50.462;9.678;2023-04-03T23:23:30;0.60;;;0.60;;
15474;SDS011;7839;50.462;9.678;2023-04-03T23:30:11;0.50;;;0.50;;
15474;SDS011;7839;50.462;9.678;2023-04-03T23:36:51;0.43;;;0.40;;
15474;SDS011;7839;50.462;9.678;2023-04-03T23:43:31;0.70;;;0.70;;
15474;SDS011;7839;50.462;9.678;2023-04-03T23:50:12;0.63;;;0.63;;
15474;SDS011;7839;50.462;9.678;2023-04-03T23:56:52;0.47;;;0.40;;
